Latest Weather Observations for Noonamah

IDD60901

Issued at 9:11 am CST Monday 8 February 2016 (issued every 10 minutes, with the page automatically refreshed every 10 minutes)

About weather observations | Map of Darwin area stations | Latest observations for Darwin area | Other Formats
Station Details ID: 014314 Name: NOONAMAH AIRSTRIP Lat: -12.61 Lon: 131.05 Height: 17.5 m
Data from the previous 72 hours. | See also: Recent months at Noonamah
Date/Time
CST
Tmp

°C
App
Tmp
°C
Dew
Point
°C
Rel
Hum
%
Delta-T

°C
Wind Press
QNH
hPa
Press
MSL
hPa
Rain
since
9 am
mm
Dir
 
Spd
km/h
Gust
km/h
Spd
kts
Gust
kts
08/09:00am 30.2 32.7 17.3 46 8.2 CALM 0 2 0 1 1009.0 1008.8 0.0
08/08:30am 29.6 31.5 16.8 46 8.0 E 2 4 1 2 1008.9 1008.7 0.0
08/08:00am 28.2 30.0 15.5 46 7.8 CALM 0 0 0 0 1008.6 1008.4 0.0
08/07:30am 27.2 28.7 14.6 46 7.6 CALM 0 0 0 0 1008.2 1008.0 0.0
08/07:00am 26.0 26.7 13.5 46 7.3 NNE 2 7 1 4 1007.9 1007.7 0.0
08/06:30am 26.2 27.4 13.7 46 7.4 CALM 0 0 0 0 1007.9 1007.7 0.0
08/06:00am 26.3 27.5 13.8 46 7.4 CALM 0 0 0 0 1007.6 1007.4 0.0
08/05:30am 26.5 27.7 13.9 45 7.5 CALM 0 0 0 0 1007.7 1007.5 0.0
08/05:00am 26.5 27.7 13.9 45 7.5 CALM 0 0 0 0 1007.6 1007.4 0.0
08/04:30am 26.6 27.9 14.0 46 7.5 CALM 0 0 0 0 1007.6 1007.4 0.0
08/04:00am 26.6 27.9 14.0 46 7.5 CALM 0 0 0 0 1007.5 1007.3 0.0
08/03:30am 26.6 27.9 14.0 46 7.5 CALM 0 0 0 0 1007.6 1007.4 0.0
08/03:00am 26.6 27.9 14.0 46 7.5 CALM 0 0 0 0 1007.6 1007.4 0.0
08/02:30am 26.6 27.9 14.0 46 7.5 CALM 0 0 0 0 1007.6 1007.4 0.0
08/02:00am 26.6 27.9 14.0 46 7.5 CALM 0 0 0 0 1007.8 1007.6 0.0
08/01:30am 26.5 27.7 13.9 45 7.5 CALM 0 0 0 0 1008.1 1007.9 0.0
08/01:00am 26.6 27.9 14.0 46 7.5 CALM 0 0 0 0 1008.3 1008.1 0.0
08/12:30am 26.5 27.7 13.9 45 7.5 CALM 0 0 0 0 1008.4 1008.2 0.0
08/12:00am 26.5 27.7 13.9 45 7.5 CALM 0 0 0 0 1008.8 1008.6 0.0
 
Date/Time
CST
Tmp

°C
App
Tmp
°C
Dew
Point
°C
Rel
Hum
%
Delta-T

°C
Wind Press
QNH
hPa
Press
MSL
hPa
Rain
since
9 am
mm
Dir
 
Spd
km/h
Gust
km/h
Spd
kts
Gust
kts
07/11:30pm 26.6 27.9 14.0 46 7.5 CALM 0 2 0 1 1009.0 1008.8 0.0
07/11:00pm 26.6 26.7 14.0 46 7.5 ENE 6 7 3 4 1009.1 1008.9 0.0
07/10:30pm 26.8 26.8 14.2 46 7.5 ESE 7 11 4 6 1009.1 1008.9 0.0
07/10:00pm 27.1 28.2 14.5 46 7.6 S 2 4 1 2 1008.8 1008.6 0.0
07/09:30pm 27.3 28.1 14.7 46 7.6 S 4 6 2 3 1008.6 1008.4 0.0
07/09:00pm 27.3 28.8 14.7 46 7.6 CALM 0 0 0 0 1008.2 1008.0 0.0
07/08:30pm 27.3 28.8 14.7 46 7.6 CALM 0 0 0 0 1007.7 1007.5 0.0
07/08:00pm 27.3 28.1 14.7 46 7.6 NW 4 6 2 3 1007.2 1007.0 0.0
07/07:30pm 27.6 28.4 14.9 45 7.7 W 4 6 2 3 1007.4 1007.2 0.0
07/07:00pm 27.8 28.7 15.1 46 7.7 WNW 4 4 2 2 1007.2 1007.0 0.0
07/06:30pm 27.9 29.2 15.2 46 7.8 NW 2 6 1 3 1006.6 1006.4 0.0
07/06:00pm 27.8 28.3 15.1 46 7.7 W 6 9 3 5 1006.1 1005.9 0.0
07/05:30pm 27.8 28.3 15.1 46 7.7 WSW 6 9 3 5 1006.0 1005.8 0.0
07/05:00pm 28.0 28.4 15.3 46 7.7 SSW 7 13 4 7 1006.0 1005.8 0.0
07/04:30pm 30.5 32.8 17.6 46 8.2 NW 2 4 1 2 1005.9 1005.7 0.0
07/04:00pm 30.3 32.1 17.4 46 8.2 N 4 6 2 3 1005.8 1005.6 0.0
07/03:30pm 29.6 30.6 16.8 46 8.1 N 7 11 4 6 1005.8 1005.6 0.0
07/03:00pm 29.0 29.4 16.2 46 8.0 N 9 20 5 11 1005.2 1005.0 0.0
07/02:30pm 30.2 29.9 17.3 46 8.2 NE 15 20 8 11 1005.4 1005.2 0.0
07/02:00pm 32.8 33.9 19.7 46 8.7 N 13 17 7 9 1006.2 1006.0 0.0
07/01:30pm 31.2 32.0 18.2 46 8.4 NNW 11 19 6 10 1006.4 1006.2 0.0
07/01:00pm 31.6 32.6 18.6 46 8.4 NW 11 19 6 10 1006.7 1006.5 0.0
07/12:30pm 33.0 35.5 19.8 45 8.8 WNW 6 11 3 6 1007.0 1006.8 0.0
07/12:00pm 32.5 34.6 19.4 46 8.6 W 7 15 4 8 1007.5 1007.3 0.0
07/11:30am 32.0 33.9 18.9 45 8.6 WNW 7 13 4 7 1008.0 1007.8 0.0
07/11:00am 32.2 34.7 19.1 45 8.6 W 4 6 2 3 1008.0 1007.8 0.0
07/10:30am 31.6 33.5 18.6 46 8.4 W 6 9 3 5 1008.3 1008.1 0.0
07/10:00am 31.3 33.5 18.3 46 8.4 NNW 4 11 2 6 1008.4 1008.2 0.0
07/09:30am 30.5 32.4 17.6 46 8.2 WNW 4 7 2 4 1008.2 1008.0 0.0
07/09:00am 29.3 30.7 16.5 46 8.0 WSW 4 6 2 3 1008.1 1007.9 -
07/08:30am 28.9 30.6 16.1 46 7.9 SSE 2 6 1 3 1007.7 1007.5 -
07/08:00am 28.3 30.1 15.6 46 7.8 CALM 0 2 0 1 1007.5 1007.3 -
07/07:30am 26.8 27.8 14.2 46 7.5 SE 2 4 1 2 1007.2 1007.0 -
07/07:00am 26.1 26.9 13.6 46 7.4 ESE 2 4 1 2 1007.1 1006.9 -
07/06:30am 26.1 26.9 13.6 46 7.4 SE 2 2 1 1 1006.9 1006.7 -
07/06:00am 26.3 27.1 13.8 46 7.4 SSE 2 4 1 2 1006.6 1006.4 -
07/05:30am 26.2 27.4 13.7 46 7.4 CALM 0 0 0 0 1006.3 1006.1 -
07/05:00am 26.3 27.5 13.8 46 7.4 CALM 0 0 0 0 1006.1 1005.9 -
07/04:30am 26.4 27.6 13.9 46 7.4 CALM 0 0 0 0 1006.1 1005.9 -
07/04:00am 26.4 27.6 13.9 46 7.4 CALM 0 0 0 0 1005.8 1005.6 -
07/03:30am 26.6 27.9 14.0 46 7.5 CALM 0 0 0 0 1005.7 1005.5 -
07/03:00am 26.8 27.8 14.2 46 7.5 S 2 2 1 1 1005.9 1005.7 0.0
07/02:30am 27.0 28.4 14.4 46 7.6 CALM 0 0 0 0 1005.9 1005.7 -
07/02:00am 26.9 28.3 14.3 46 7.5 CALM 0 0 0 0 1006.3 1006.1 -
07/01:30am 27.0 28.4 14.4 46 7.6 CALM 0 0 0 0 1006.9 1006.7 -
07/01:00am 27.1 28.5 14.5 46 7.6 CALM 0 0 0 0 1007.1 1006.9 -
07/12:30am 27.3 28.1 14.7 46 7.6 SW 4 4 2 2 1007.4 1007.2 -
07/12:00am 27.4 28.2 14.8 46 7.6 SW 4 6 2 3 1007.7 1007.5 -
 
Date/Time
CST
Tmp

°C
App
Tmp
°C
Dew
Point
°C
Rel
Hum
%
Delta-T

°C
Wind Press
QNH
hPa
Press
MSL
hPa
Rain
since
9 am
mm
Dir
 
Spd
km/h
Gust
km/h
Spd
kts
Gust
kts
06/11:30pm 27.4 28.6 14.8 46 7.6 W 2 4 1 2 1007.8 1007.6 -
06/11:00pm 27.8 28.7 15.1 46 7.7 WNW 4 6 2 3 1007.8 1007.6 -
06/10:30pm 28.0 29.0 15.3 46 7.8 WNW 4 6 2 3 1007.6 1007.4 -
06/10:00pm 28.1 28.7 15.4 46 7.8 WNW 6 9 3 5 1007.5 1007.3 -
06/09:30pm 28.2 28.9 15.5 46 7.8 NW 6 7 3 4 1007.2 1007.0 -
06/09:00pm 28.3 29.0 15.6 46 7.8 NNW 6 9 3 5 1006.9 1006.7 -
06/08:30pm 28.4 29.5 15.7 46 7.8 WNW 4 4 2 2 1006.3 1006.1 -
06/08:00pm 28.9 30.9 16.1 46 7.9 CALM 0 0 0 0 1005.7 1005.5 -
06/07:30pm 29.5 31.8 16.7 46 8.0 CALM 0 0 0 0 1005.3 1005.1 -
06/07:00pm 30.3 32.5 17.4 46 8.2 WNW 2 4 1 2 1005.0 1004.8 -
06/06:30pm 30.9 32.5 17.9 45 8.4 W 6 7 3 4 1004.9 1004.7 0.0
06/06:00pm 31.7 33.7 18.7 46 8.5 W 6 9 3 5 1004.6 1004.4 0.0
06/05:30pm 32.3 34.5 19.2 46 8.6 WSW 6 11 3 6 1004.2 1004.0 0.0
06/05:00pm 31.9 33.7 18.8 45 8.5 SW 7 13 4 7 1004.1 1003.9 0.0
06/04:30pm 32.1 33.3 19.0 45 8.6 SW 11 17 6 9 1004.0 1003.8 0.0
06/04:00pm 32.9 34.8 19.7 45 8.7 SSW 9 13 5 7 1004.2 1004.0 0.0
06/03:30pm 33.1 35.1 19.9 45 8.8 WSW 9 20 5 11 1004.5 1004.3 0.0
06/03:00pm 32.6 33.6 19.5 46 8.6 WSW 13 20 7 11 1004.7 1004.5 0.0
06/02:30pm 32.2 33.8 19.1 45 8.6 WSW 9 17 5 9 1005.1 1004.9 0.0
06/02:00pm 32.3 33.9 19.2 46 8.6 WSW 9 19 5 10 1005.6 1005.4 0.0
06/01:30pm 31.5 32.4 18.5 46 8.4 WSW 11 17 6 9 1006.1 1005.9 0.0
06/01:00pm 30.9 30.8 17.9 45 8.3 W 15 26 8 14 1006.7 1006.5 0.0
06/12:30pm 30.7 31.3 17.7 45 8.3 W 11 22 6 12 1007.3 1007.1 0.0
06/12:00pm 29.9 30.6 17.0 45 8.1 WNW 9 17 5 9 1007.8 1007.6 0.0
06/11:30am 29.4 29.9 16.6 46 8.0 W 9 15 5 8 1008.0 1007.8 0.0
06/11:00am 29.3 30.2 16.5 46 8.0 W 7 13 4 7 1008.4 1008.2 0.0
06/10:30am 28.7 29.3 15.9 45 7.9 SW 7 15 4 8 1008.5 1008.3 0.0
06/10:00am 27.6 27.5 14.9 45 7.7 WSW 9 15 5 8 1008.6 1008.4 0.0
06/09:30am 27.1 26.5 14.5 46 7.6 WSW 11 17 6 9 1008.9 1008.7 0.0
06/09:00am 26.8 26.1 14.2 46 7.5 SW 11 17 6 9 1009.1 1008.9 4.8
06/08:30am 26.3 25.4 13.8 46 7.4 SW 11 20 6 11 1008.9 1008.7 4.8
06/08:00am 26.2 24.9 13.7 46 7.4 WSW 13 22 7 12 1008.1 1007.9 4.8
06/07:30am 25.8 24.8 13.3 46 7.3 WSW 11 20 6 11 1007.6 1007.4 4.8
06/07:00am 25.6 25.2 13.1 46 7.3 WSW 7 11 4 6 1007.5 1007.3 4.8
06/06:30am 25.8 25.5 13.3 46 7.3 W 7 13 4 7 1007.2 1007.0 4.8
06/06:00am 25.8 25.5 13.3 46 7.3 W 7 11 4 6 1006.7 1006.5 4.8
06/05:30am 26.2 25.7 13.7 46 7.4 W 9 20 5 11 1006.3 1006.1 4.8
06/05:00am 26.5 27.4 13.9 45 7.5 SW 2 4 1 2 1005.8 1005.6 4.8
06/04:30am 26.4 26.9 13.9 46 7.4 WNW 4 6 2 3 1005.6 1005.4 4.8
06/04:00am 26.2 27.0 13.7 46 7.4 NW 2 6 1 3 1005.8 1005.6 4.8
06/03:30am 26.2 27.4 13.7 46 7.4 CALM 0 0 0 0 1005.9 1005.7 4.8
06/03:00am 26.1 27.2 13.6 46 7.4 CALM 0 0 0 0 1006.0 1005.8 4.8
06/02:30am 26.0 26.7 13.5 46 7.4 WNW 2 4 1 2 1006.4 1006.2 4.8
06/02:00am 25.9 26.6 13.4 46 7.3 NW 2 4 1 2 1006.8 1006.6 4.8
06/01:30am 26.0 26.7 13.5 46 7.4 W 2 4 1 2 1007.0 1006.8 4.8
06/01:00am 25.9 27.0 13.4 46 7.3 CALM 0 0 0 0 1007.4 1007.2 4.8
06/12:30am 25.9 27.0 13.4 46 7.4 CALM 0 0 0 0 1007.6 1007.4 4.8
06/12:00am 25.8 26.8 13.3 46 7.3 CALM 0 0 0 0 1007.6 1007.4 4.8
 
Date/Time
CST
Tmp

°C
App
Tmp
°C
Dew
Point
°C
Rel
Hum
%
Delta-T

°C
Wind Press
QNH
hPa
Press
MSL
hPa
Rain
since
9 am
mm
Dir
 
Spd
km/h
Gust
km/h
Spd
kts
Gust
kts
05/11:30pm 26.0 27.1 13.5 46 7.4 CALM 0 0 0 0 1007.6 1007.4 4.8
05/11:00pm 26.0 27.1 13.5 46 7.3 CALM 0 0 0 0 1008.0 1007.8 4.8
05/10:30pm 25.9 27.0 13.4 46 7.3 CALM 0 0 0 0 1008.0 1007.8 4.8
05/10:00pm 25.9 26.2 13.4 46 7.3 NW 4 6 2 3 1007.8 1007.6 4.8
05/09:30pm 25.9 26.2 13.4 46 7.3 NW 4 6 2 3 1007.9 1007.7 4.8
05/09:00pm 26.0 26.7 13.5 46 7.4 W 2 6 1 3 1007.8 1007.6 4.8
05/08:30pm 25.9 26.2 13.4 46 7.4 SSW 4 4 2 2 1007.5 1007.3 4.8
05/08:00pm 26.0 27.1 13.5 46 7.3 CALM 0 0 0 0 1007.1 1006.9 4.8
05/07:30pm 26.0 27.1 13.5 46 7.4 CALM 0 0 0 0 1007.0 1006.8 4.6
05/07:00pm 25.9 25.8 13.4 46 7.3 ENE 6 7 3 4 1006.8 1006.6 4.4
05/06:30pm 25.9 26.6 13.4 46 7.4 WSW 2 6 1 3 1006.5 1006.3 3.8
05/06:00pm 26.5 27.0 13.9 45 7.5 WSW 4 4 2 2 1006.2 1006.0 1.2
05/05:30pm 26.8 27.0 14.2 46 7.5 S 6 9 3 5 1005.5 1005.3 0.2
05/05:00pm 27.3 27.7 14.7 46 7.6 S 6 9 3 5 1005.6 1005.4 0.2
05/04:30pm 27.9 28.3 15.2 46 7.8 WNW 7 13 4 7 1005.2 1005.0 0.0
05/04:00pm 28.7 28.2 15.9 45 7.9 NNW 13 24 7 13 1004.6 1004.4 0.0
05/03:30pm 28.9 28.1 16.1 46 8.0 NW 15 22 8 12 1004.5 1004.3 0.0
05/03:00pm 33.5 35.3 20.3 46 8.8 WNW 11 17 6 9 1004.1 1003.9 0.0
05/02:30pm 31.7 32.3 18.7 46 8.5 W 13 19 7 10 1004.4 1004.2 0.0
05/02:00pm 33.9 36.2 20.6 45 8.9 SW 9 17 5 9 1004.8 1004.6 0.0
05/01:30pm 33.6 36.2 20.4 46 8.8 SSW 7 17 4 9 1005.6 1005.4 0.0
05/01:00pm 32.8 35.2 19.7 46 8.7 WSW 6 9 3 5 1006.2 1006.0 0.0
05/12:30pm 32.9 35.1 19.7 45 8.7 SW 7 11 4 6 1006.7 1006.5 0.0
05/12:00pm 32.6 34.9 19.5 46 8.6 S 6 11 3 6 1007.0 1006.8 0.0
05/11:30am 31.2 32.8 18.2 46 8.4 SW 7 17 4 9 1007.4 1007.2 0.0
05/11:00am 31.3 32.2 18.3 46 8.4 WSW 11 17 6 9 1007.7 1007.5 0.0
05/10:30am 30.5 31.8 17.6 46 8.2 WSW 7 11 4 6 1008.3 1008.1 0.0
05/10:00am 30.2 31.6 17.3 46 8.2 SSW 6 9 3 5 1008.5 1008.3 0.0
05/09:30am 29.4 30.5 16.6 46 8.0 SW 6 7 3 4 1008.7 1008.5 0.0

Latest Capital City Observations: Canberra | Sydney | Melbourne | Brisbane | Adelaide | Perth | Hobart | Darwin

Other Formats:

Comma delimited format used in spreadsheet applications
http://www.bom.gov.au/fwo/IDD60901/IDD60901.94105.axf

JavaScript Object Notation format (JSON) in row-major order
http://www.bom.gov.au/fwo/IDD60901/IDD60901.94105.json